Time;durP1;ratioP1;P1;durP2;ratioP2;P2;SDS_P1;SDS_P2;PMS_P1;PMS_P2;Temp;Humidity;BMP_temperature;BMP_pressure;BME280_temperature;BME280_humidity;BME280_pressure;Samples;Min_cycle;Max_cycle;Signal;HPM_P1;HPM_P2
2021/03/23 00:00:35;;;;;;;96.37;42.80;;;;;;;-2.48;76.59;98371.73;1824595;77;21133;-72
2021/03/23 00:03:13;;;;;;;93.52;41.40;;;;;;;-2.44;78.27;98378.83;1824653;78;21079;-72
2021/03/23 00:05:39;;;;;;;98.50;43.83;;;;;;;-2.37;78.86;98380.55;1824553;77;21106;-71
2021/03/23 00:08:07;;;;;;;79.60;38.33;;;;;;;-2.31;78.65;98372.31;1824632;78;21121;-71
2021/03/23 00:10:33;;;;;;;83.30;38.63;;;;;;;-2.24;76.67;98362.59;1824654;77;21443;-71
2021/03/23 00:12:59;;;;;;;92.35;40.28;;;;;;;-2.31;78.24;98363.88;1824616;78;21138;-71
2021/03/23 00:15:26;;;;;;;82.75;41.28;;;;;;;-2.21;77.18;98368.05;1824560;77;21195;-71
2021/03/23 00:17:52;;;;;;;112.42;44.98;;;;;;;-2.29;78.22;98373.79;1824542;78;21128;-71
2021/03/23 00:20:22;;;;;;;111.60;49.30;;;;;;;-2.34;78.97;98370.87;1824572;77;21133;-71
2021/03/23 00:22:48;;;;;;;142.15;57.80;;;;;;;-2.28;78.49;98363.48;1824699;78;21154;-72
2021/03/23 00:25:14;;;;;;;135.12;51.63;;;;;;;-2.23;78.15;98363.41;1824664;77;21023;-72
2021/03/23 00:27:41;;;;;;;113.88;47.93;;;;;;;-2.23;78.37;98364.22;1824640;78;22334;-72
2021/03/23 00:30:11;;;;;;;165.85;61.80;;;;;;;-2.16;77.30;98358.98;1824562;77;21110;-72
2021/03/23 00:32:37;;;;;;;131.75;59.10;;;;;;;-2.15;77.17;98358.79;1824601;78;21082;-72
2021/03/23 00:35:06;;;;;;;167.40;67.55;;;;;;;-2.11;77.09;98354.76;1829414;77;21411;-72
2021/03/23 00:37:32;;;;;;;;;;;;;;;-2.12;77.89;98357.09;1835470;78;21098;-72
2021/03/23 00:39:58;;;;;;;150.95;64.12;;;;;;;-2.14;78.05;98352.46;1832689;77;21204;-72
2021/03/23 00:42:24;;;;;;;187.32;76.95;;;;;;;-2.17;77.95;98347.55;1832756;78;21137;-72
2021/03/23 00:44:50;;;;;;;102.47;41.53;;;;;;;-2.21;78.78;98347.63;1832676;77;21090;-72
2021/03/23 00:47:16;;;;;;;86.10;37.75;;;;;;;-2.15;77.44;98342.86;1832723;78;21138;-72
2021/03/23 00:49:42;;;;;;;99.50;50.60;;;;;;;-2.17;76.76;98347.55;1832774;77;21026;-72
2021/03/23 00:52:08;;;;;;;89.47;39.70;;;;;;;-2.22;78.59;98345.98;1832733;78;21397;-72
2021/03/23 00:54:34;;;;;;;89.00;44.95;;;;;;;-2.19;77.60;98337.63;1832643;77;21431;-72
2021/03/23 00:57:01;;;;;;;74.25;35.95;;;;;;;-2.16;77.77;98344.38;1832712;78;21118;-72
2021/03/23 00:59:27;;;;;;;85.12;40.33;;;;;;;-2.13;77.40;98340.03;1832734;76;21193;-72
2021/03/23 01:01:53;;;;;;;89.80;39.13;;;;;;;-2.09;76.98;98340.77;1832721;78;21138;-72
2021/03/23 01:04:19;;;;;;;85.40;43.33;;;;;;;-2.05;77.75;98343.86;1832786;77;21291;-72
2021/03/23 01:06:45;;;;;;;78.45;36.58;;;;;;;-1.95;77.67;98337.73;1832740;78;21158;-72
2021/03/23 01:09:11;;;;;;;73.75;35.20;;;;;;;-1.89;76.95;98343.59;1832785;77;21598;-72
2021/03/23 01:11:37;;;;;;;75.60;37.40;;;;;;;-1.88;77.00;98339.95;1832722;78;21175;-72
2021/03/23 01:14:04;;;;;;;76.97;35.92;;;;;;;-1.90;77.34;98339.29;1832750;78;21145;-72
2021/03/23 01:16:30;;;;;;;76.20;36.40;;;;;;;-1.93;78.27;98336.21;1832651;77;21243;-72
2021/03/23 01:18:56;;;;;;;87.10;37.42;;;;;;;-1.90;76.50;98334.48;1832573;78;21133;-72
2021/03/23 01:21:22;;;;;;;81.95;36.68;;;;;;;-1.95;76.22;98335.08;1832686;77;21058;-72
2021/03/23 01:23:48;;;;;;;77.08;39.33;;;;;;;-2.00;78.08;98330.84;1832808;78;21515;-72
2021/03/23 01:26:14;;;;;;;72.67;34.00;;;;;;;-1.96;77.69;98333.95;1832762;76;21034;-72
2021/03/23 01:28:41;;;;;;;76.97;32.38;;;;;;;-1.92;76.70;98336.52;1832717;78;21272;-72
2021/03/23 01:31:07;;;;;;;73.97;34.18;;;;;;;-1.96;77.44;98336.61;1832562;77;21106;-72
2021/03/23 01:33:33;;;;;;;69.95;34.15;;;;;;;-1.94;77.23;98333.24;1832630;78;21120;-72
2021/03/23 01:35:59;;;;;;;87.15;36.25;;;;;;;-1.92;78.16;98337.84;1825673;77;21078;-72
2021/03/23 01:38:25;;;;;;;75.55;32.98;;;;;;;-1.95;78.48;98333.75;1824565;78;21127;-72
2021/03/23 01:40:51;;;;;;;84.00;38.40;;;;;;;-1.90;77.34;98335.81;1824568;77;21188;-72
2021/03/23 01:43:27;;;;;;;70.10;31.02;;;;;;;-2.00;78.55;98332.17;1824526;78;21148;-72
2021/03/23 01:45:57;;;;;;;54.67;28.23;;;;;;;-2.00;78.61;98336.15;1824254;77;21038;-72
2021/03/23 01:48:28;;;;;;;65.40;31.48;;;;;;;-1.93;77.55;98344.18;1823974;78;21070;-72
2021/03/23 01:51:00;;;;;;;65.85;33.42;;;;;;;-1.89;77.15;98340.11;1824535;77;21042;-72
2021/03/23 01:53:45;;;;;;;75.78;34.70;;;;;;;-1.85;78.56;98342.20;1824542;78;21184;-72
2021/03/23 01:56:12;;;;;;;69.05;34.78;;;;;;;-1.75;77.44;98340.53;1824429;77;21075;-72
2021/03/23 01:58:42;;;;;;;102.82;41.80;;;;;;;-1.73;78.29;98334.52;1824562;78;21468;-72
2021/03/23 02:01:11;;;;;;;73.55;37.73;;;;;;;-1.81;78.98;98336.80;1824566;77;21510;-72
2021/03/23 02:03:37;;;;;;;68.87;36.27;;;;;;;-1.75;78.23;98338.70;1824897;78;21102;-72
2021/03/23 02:06:04;;;;;;;73.78;39.05;;;;;;;-1.68;77.70;98342.74;1824566;77;21527;-72
2021/03/23 02:08:30;;;;;;;67.47;33.95;;;;;;;-1.70;78.66;98348.77;1824049;78;21138;-72
2021/03/23 02:10:58;;;;;;;80.77;34.30;;;;;;;-1.64;77.00;98348.48;1824540;77;21031;-72
2021/03/23 02:13:24;;;;;;;78.92;35.90;;;;;;;-1.68;76.99;98343.25;1824476;78;21082;-72
2021/03/23 02:15:50;;;;;;;72.30;33.73;;;;;;;-1.76;78.13;98337.06;1824580;77;21130;-72
2021/03/23 02:18:22;;;;;;;70.08;35.75;;;;;;;-1.70;77.41;98339.47;1824541;78;21194;-72
2021/03/23 02:21:12;;;;;;;66.12;33.80;;;;;;;-1.71;78.22;98339.97;1823466;77;21105;-72
2021/03/23 02:23:48;;;;;;;73.20;35.38;;;;;;;-1.68;78.56;98330.78;1824516;78;21098;-72
2021/03/23 02:26:20;;;;;;;73.22;35.30;;;;;;;-1.58;77.92;98335.24;1823513;77;21511;-72
2021/03/23 02:29:08;;;;;;;76.70;34.25;;;;;;;-1.56;78.13;98338.52;1824560;78;21067;-72
2021/03/23 02:31:43;;;;;;;71.10;33.65;;;;;;;-1.57;78.22;98328.91;1824593;78;21192;-72
2021/03/23 02:34:13;;;;;;;62.75;31.35;;;;;;;-1.55;77.18;98324.20;1824424;77;21098;-72
2021/03/23 02:36:40;;;;;;;66.33;32.83;;;;;;;-1.56;77.40;98327.89;1824493;78;21078;-73
2021/03/23 02:39:08;;;;;;;59.33;30.80;;;;;;;-1.63;78.62;98320.38;1824465;77;21083;-73
2021/03/23 02:41:35;;;;;;;59.93;32.30;;;;;;;-1.61;77.17;98318.37;1824629;78;21027;-72
2021/03/23 02:44:02;;;;;;;64.15;31.97;;;;;;;-1.62;77.41;98330.02;1824514;78;21203;-73
2021/03/23 02:46:28;;;;;;;64.25;31.85;;;;;;;-1.62;78.29;98327.84;1824387;77;21054;-72
2021/03/23 02:48:54;;;;;;;68.28;29.98;;;;;;;-1.63;78.05;98323.03;1824480;78;21149;-72
2021/03/23 02:51:20;;;;;;;72.30;33.20;;;;;;;-1.62;77.83;98325.18;1824541;77;21126;-72
2021/03/23 02:53:47;;;;;;;55.30;27.05;;;;;;;-1.62;78.47;98326.51;1824496;78;21137;-72
2021/03/23 02:56:13;;;;;;;62.58;29.60;;;;;;;-1.58;78.00;98321.95;1824439;77;21190;-73
2021/03/23 02:58:39;;;;;;;113.28;45.98;;;;;;;-1.57;77.91;98321.44;1824460;78;21106;-73
2021/03/23 03:01:06;;;;;;;107.70;45.50;;;;;;;-1.54;77.12;98322.38;1824433;77;21093;-72
2021/03/23 03:03:32;;;;;;;99.52;45.23;;;;;;;-1.58;76.89;98324.61;1824498;78;21141;-72
2021/03/23 03:05:58;;;;;;;97.27;41.58;;;;;;;-1.61;77.75;98321.02;1824470;77;21094;-73
2021/03/23 03:08:24;;;;;;;75.95;36.70;;;;;;;-1.55;77.10;98320.73;1824498;78;22045;-72
2021/03/23 03:10:51;;;;;;;77.35;34.53;;;;;;;-1.56;76.79;98317.77;1824446;77;21122;-73
2021/03/23 03:13:21;;;;;;;73.72;34.15;;;;;;;-1.57;76.72;98321.44;1824474;78;21145;-72
2021/03/23 03:15:48;;;;;;;79.12;37.15;;;;;;;-1.55;77.22;98325.54;1824512;77;21150;-73
2021/03/23 03:18:14;;;;;;;80.87;39.23;;;;;;;-1.45;77.17;98314.59;1824498;78;21086;-72
2021/03/23 03:20:40;;;;;;;63.60;33.90;;;;;;;-1.32;77.87;98318.63;1824435;77;22076;-72
2021/03/23 03:23:06;;;;;;;79.27;37.88;;;;;;;-1.21;77.49;98317.25;1824456;78;21078;-73
2021/03/23 03:25:33;;;;;;;82.88;39.65;;;;;;;-1.11;77.30;98324.37;1824452;77;21106;-72
2021/03/23 03:27:59;;;;;;;88.95;43.68;;;;;;;-1.07;76.61;98318.14;1824497;78;21534;-72
2021/03/23 03:30:30;;;;;;;57.78;29.30;;;;;;;-1.10;76.52;98314.05;1824442;77;21003;-73
2021/03/23 03:32:57;;;;;;;42.40;21.42;;;;;;;-0.99;76.50;98311.32;1824589;78;22041;-72
2021/03/23 03:35:25;;;;;;;54.00;26.80;;;;;;;-0.81;76.18;98309.44;1825122;77;21051;-71
2021/03/23 03:37:52;;;;;;;53.50;23.40;;;;;;;-0.65;75.84;98301.91;1826659;78;21063;-71
2021/03/23 03:40:22;;;;;;;41.88;19.40;;;;;;;-0.53;75.78;98304.80;1826611;77;21150;-71
2021/03/23 03:42:48;;;;;;;48.15;25.68;;;;;;;-0.43;75.28;98310.55;1826386;78;21509;-72
2021/03/23 03:45:14;;;;;;;43.60;24.10;;;;;;;-0.37;75.16;98304.42;1826733;77;21198;-72
2021/03/23 03:47:41;;;;;;;70.10;32.55;;;;;;;-0.33;75.16;98307.52;1821746;78;21169;-72
2021/03/23 03:50:08;;;;;;;50.00;24.43;;;;;;;-0.27;75.18;98305.86;1826625;77;21034;-72
2021/03/23 03:52:34;;;;;;;44.15;22.17;;;;;;;-0.25;75.12;98299.33;1826701;78;21098;-72
2021/03/23 03:55:00;;;;;;;35.20;19.37;;;;;;;-0.19;74.63;98305.16;1826695;77;21252;-72
2021/03/23 03:57:26;;;;;;;40.48;19.92;;;;;;;-0.14;74.60;98299.23;1826672;78;21487;-72
2021/03/23 03:59:53;;;;;;;32.93;16.82;;;;;;;-0.07;74.22;98301.39;1826640;77;21022;-72
2021/03/23 04:02:19;;;;;;;40.78;17.95;;;;;;;0.01;73.88;98296.38;1826676;78;21140;-72
2021/03/23 04:04:46;;;;;;;43.48;17.20;;;;;;;0.05;73.71;98303.73;1826566;77;21039;-72
2021/03/23 04:07:13;;;;;;;37.78;17.27;;;;;;;0.11;73.05;98293.59;1826678;78;21532;-72
2021/03/23 04:09:39;;;;;;;37.88;19.12;;;;;;;0.16;73.18;98298.28;1826641;77;21082;-72
2021/03/23 04:12:07;;;;;;;45.33;20.57;;;;;;;0.23;72.89;98299.92;1826554;78;21142;-72
2021/03/23 04:14:33;;;;;;;43.57;19.60;;;;;;;0.25;72.73;98301.05;1826838;77;21055;-72
2021/03/23 04:16:59;;;;;;;43.90;20.32;;;;;;;0.25;72.64;98304.53;1826630;78;21102;-72
2021/03/23 04:19:27;;;;;;;36.13;19.23;;;;;;;0.25;72.69;98306.38;1826719;77;21297;-72
2021/03/23 04:21:53;;;;;;;43.95;22.00;;;;;;;0.27;72.78;98308.34;1826596;78;21134;-73
2021/03/23 04:24:19;;;;;;;66.00;26.48;;;;;;;0.30;72.54;98303.11;1826579;77;21101;-72
2021/03/23 04:26:45;;;;;;;59.50;25.68;;;;;;;0.24;72.58;98306.89;1826610;78;21023;-72
2021/03/23 04:29:12;;;;;;;56.53;25.95;;;;;;;0.21;72.86;98303.83;1826697;77;21149;-72
2021/03/23 04:31:42;;;;;;;50.10;22.75;;;;;;;0.24;72.98;98310.89;1826632;78;21117;-73
2021/03/23 04:34:08;;;;;;;70.85;32.17;;;;;;;0.23;72.88;98310.59;1826709;77;22105;-72
2021/03/23 04:36:35;;;;;;;76.42;31.60;;;;;;;0.21;73.05;98311.83;1825004;78;21161;-72
2021/03/23 04:39:04;;;;;;;120.97;48.50;;;;;;;0.16;73.00;98319.61;1824688;78;21543;-73
2021/03/23 04:41:30;;;;;;;137.18;54.40;;;;;;;0.07;72.95;98322.17;1823576;78;21476;-73
2021/03/23 04:43:56;;;;;;;119.15;55.23;;;;;;;0.02;73.04;98321.98;1824685;78;21120;-73
2021/03/23 04:46:25;;;;;;;73.78;32.45;;;;;;;0.02;73.27;98324.14;1824631;77;22029;-72
2021/03/23 04:48:51;;;;;;;65.55;30.12;;;;;;;-0.01;73.19;98323.19;1824676;78;21082;-72
2021/03/23 04:51:19;;;;;;;58.87;29.75;;;;;;;-0.10;73.55;98321.76;1824079;78;21153;-72
2021/03/23 04:53:45;;;;;;;62.45;30.92;;;;;;;-0.17;73.81;98327.58;1824539;78;21459;-72
2021/03/23 04:56:24;;;;;;;68.10;32.70;;;;;;;-0.20;73.74;98324.83;1824585;77;21102;-73
2021/03/23 04:58:51;;;;;;;61.00;30.00;;;;;;;-0.44;75.28;98330.72;1824202;78;22031;-71
2021/03/23 05:01:17;;;;;;;69.27;31.80;;;;;;;-0.45;74.66;98331.75;1824553;77;21146;-71
2021/03/23 05:03:43;;;;;;;58.45;30.12;;;;;;;-0.50;74.64;98332.37;1824667;78;21515;-71
2021/03/23 05:06:10;;;;;;;71.92;31.60;;;;;;;-0.59;75.43;98330.91;1824539;77;21467;-71
2021/03/23 05:08:40;;;;;;;62.38;32.42;;;;;;;-0.67;76.17;98327.92;1824674;78;21121;-71
2021/03/23 05:11:07;;;;;;;62.33;30.82;;;;;;;-0.67;76.42;98331.91;1823942;77;21495;-72
2021/03/23 05:13:33;;;;;;;68.25;34.70;;;;;;;-0.67;75.59;98329.77;1824541;78;21078;-72
2021/03/23 05:15:59;;;;;;;52.48;26.30;;;;;;;-0.73;76.96;98329.22;1824538;77;21500;-72
2021/03/23 05:18:26;;;;;;;50.65;26.20;;;;;;;-0.70;75.32;98332.29;1824570;78;21165;-72
2021/03/23 05:20:52;;;;;;;61.70;29.82;;;;;;;-0.70;75.08;98334.95;1824618;77;21094;-72
2021/03/23 05:23:19;;;;;;;50.85;25.75;;;;;;;-0.73;76.27;98332.70;1824605;78;22119;-72
2021/03/23 05:25:45;;;;;;;65.57;29.87;;;;;;;-0.70;75.27;98334.95;1824523;77;21003;-72
2021/03/23 05:28:12;;;;;;;71.65;31.00;;;;;;;-0.70;76.46;98332.80;1824575;78;21121;-72
2021/03/23 05:30:40;;;;;;;54.50;28.57;;;;;;;-0.66;76.33;98336.72;1824515;77;21436;-72
2021/03/23 05:33:07;;;;;;;55.08;25.77;;;;;;;-0.60;75.36;98334.09;1797076;78;21070;-72
2021/03/23 05:35:33;;;;;;;73.37;35.55;;;;;;;-0.58;74.94;98333.37;1824851;77;22274;-73
2021/03/23 05:38:00;;;;;;;68.10;33.58;;;;;;;-0.60;76.07;98334.56;1826629;78;21110;-72
2021/03/23 05:40:34;;;;;;;81.97;32.88;;;;;;;-0.58;76.69;98330.70;1826534;77;21554;-73
2021/03/23 05:43:17;;;;;;;66.25;33.92;;;;;;;-0.48;76.40;98341.48;1826590;78;21129;-72
2021/03/23 05:45:43;;;;;;;84.83;35.05;;;;;;;-0.47;76.94;98339.94;1825149;77;21027;-73
2021/03/23 05:48:27;;;;;;;77.12;36.50;;;;;;;-0.37;75.69;98340.88;1826682;78;22340;-72
2021/03/23 05:51:05;;;;;;;89.52;40.43;;;;;;;-0.35;75.35;98336.17;1826496;77;21038;-72
2021/03/23 05:53:41;;;;;;;98.10;46.48;;;;;;;-0.31;76.14;98332.91;1826218;78;21122;-72
2021/03/23 05:56:08;;;;;;;107.35;45.78;;;;;;;-0.33;76.99;98340.29;1825684;77;21541;-72
2021/03/23 05:58:37;;;;;;;91.63;44.45;;;;;;;-0.26;76.79;98341.61;1826671;78;21137;-73
2021/03/23 06:01:09;;;;;;;89.92;40.08;;;;;;;-0.19;76.37;98340.30;1826571;77;21232;-73
2021/03/23 06:03:59;;;;;;;86.30;41.75;;;;;;;-0.08;75.50;98346.37;1826514;78;21067;-72
2021/03/23 06:06:57;;;;;;;78.57;40.05;;;;;;;-0.03;75.23;98348.72;1826606;77;21491;-72
2021/03/23 06:09:27;;;;;;;101.02;47.78;;;;;;;0.01;75.92;98346.48;1826450;77;21484;-71
2021/03/23 06:12:27;;;;;;;90.03;44.08;;;;;;;0.12;75.55;98344.53;1826677;78;21423;-72
2021/03/23 06:15:22;;;;;;;88.22;42.65;;;;;;;0.25;75.24;98339.18;1826609;77;21195;-72
2021/03/23 06:18:06;;;;;;;162.72;65.37;;;;;;;0.36;75.17;98339.61;1826586;78;21090;-72
2021/03/23 06:20:59;;;;;;;134.07;56.37;;;;;;;0.60;75.18;98351.45;1825302;77;21047;-72
2021/03/23 06:24:00;;;;;;;121.10;51.77;;;;;;;0.82;74.82;98351.52;1826693;78;21472;-71
2021/03/23 06:27:10;;;;;;;107.40;48.40;;;;;;;1.05;74.23;98355.88;1826537;77;20999;-72
2021/03/23 06:30:10;;;;;;;111.20;50.17;;;;;;;1.19;74.21;98361.16;1826414;77;21205;-73
2021/03/23 06:32:55;;;;;;;100.72;46.63;;;;;;;1.32;73.67;98359.78;1826549;78;21099;-71
2021/03/23 06:35:29;;;;;;;135.82;60.17;;;;;;;1.39;73.06;98358.72;1825576;77;21492;-71
2021/03/23 06:37:55;;;;;;;104.38;46.35;;;;;;;1.51;73.17;98359.38;1826510;78;21142;-72
2021/03/23 06:40:30;;;;;;;82.40;39.90;;;;;;;1.66;73.12;98360.73;1826639;77;20994;-72
2021/03/23 06:43:00;;;;;;;32.13;16.75;;;;;;;1.82;72.97;98354.08;1826563;78;21389;-72
2021/03/23 06:45:33;;;;;;;30.17;15.65;;;;;;;2.02;71.66;98351.26;1817547;78;21530;-72
2021/03/23 06:48:24;;;;;;;29.25;13.00;;;;;;;2.14;71.59;98360.75;1826614;78;21138;-73
2021/03/23 06:50:52;;;;;;;36.10;9.78;;;;;;;2.28;68.51;98359.59;1825153;77;21494;-72
2021/03/23 06:53:22;;;;;;;29.45;13.05;;;;;;;2.38;68.42;98357.77;1794613;78;21118;-71
2021/03/23 06:55:50;;;;;;;42.58;16.67;;;;;;;2.40;69.69;98362.40;1826499;77;21266;-72
2021/03/23 06:58:30;;;;;;;19.75;12.15;;;;;;;2.46;68.18;98356.97;1826817;78;21468;-73
2021/03/23 07:01:14;;;;;;;28.47;13.75;;;;;;;2.52;68.39;98360.63;1826507;77;21035;-71
2021/03/23 07:03:44;;;;;;;23.67;11.45;;;;;;;2.55;68.15;98365.02;1826542;78;21098;-72
2021/03/23 07:06:28;;;;;;;;;;;;;;;2.64;67.13;98355.37;1819490;77;21183;-73
2021/03/23 07:09:20;;;;;;;21.73;11.65;;;;;;;2.68;66.96;98353.39;1826650;78;21194;-72
2021/03/23 07:11:59;;;;;;;23.15;11.83;;;;;;;2.74;66.64;98353.03;1826545;78;21423;-71
2021/03/23 07:14:33;;;;;;;23.35;11.35;;;;;;;2.76;66.26;98353.63;1826518;77;21224;-72
2021/03/23 07:17:15;;;;;;;21.40;11.05;;;;;;;2.83;65.69;98363.22;1826748;78;21125;-72
2021/03/23 07:19:59;;;;;;;25.05;12.00;;;;;;;2.85;65.59;98356.30;1813433;77;21073;-73
2021/03/23 07:22:43;;;;;;;23.10;10.90;;;;;;;2.93;64.33;98356.54;1826791;78;21188;-71
2021/03/23 07:25:34;;;;;;;32.33;20.60;;;;;;;2.90;64.22;98351.09;1825499;77;21066;-72
2021/03/23 07:28:36;;;;;;;32.38;13.98;;;;;;;2.94;65.17;98358.17;1826669;78;21063;-72
2021/03/23 07:31:24;;;;;;;27.65;14.63;;;;;;;3.02;64.87;98358.70;1826638;77;21022;-72
2021/03/23 07:34:10;;;;;;;18.32;8.73;;;;;;;3.07;64.78;98354.81;1826566;78;21518;-72
2021/03/23 07:37:15;;;;;;;25.25;14.63;;;;;;;3.20;62.82;98354.37;1826059;78;21195;-71
2021/03/23 07:39:55;;;;;;;29.05;15.60;;;;;;;3.17;62.99;98350.30;1824305;77;21125;-72
2021/03/23 07:42:30;;;;;;;21.90;11.43;;;;;;;3.22;63.65;98344.25;1824741;78;21507;-72
2021/03/23 07:45:26;;;;;;;24.55;11.55;;;;;;;3.28;62.66;98347.38;1824424;77;21034;-72
2021/03/23 07:48:08;;;;;;;19.70;10.68;;;;;;;3.38;63.31;98340.97;1824640;78;21047;-72
2021/03/23 07:50:35;;;;;;;26.12;11.68;;;;;;;3.56;61.96;98340.11;1824249;77;21404;-72
2021/03/23 07:53:24;;;;;;;19.77;9.95;;;;;;;3.71;62.09;98343.21;1824749;78;21113;-72
2021/03/23 07:55:51;;;;;;;22.85;11.22;;;;;;;3.75;61.95;98336.86;1824596;77;21110;-72
2021/03/23 07:58:40;;;;;;;19.87;11.05;;;;;;;3.85;61.80;98333.95;1824603;78;21503;-73
2021/03/23 08:01:33;;;;;;;19.90;10.32;;;;;;;3.92;60.77;98339.19;1824481;77;21126;-72
2021/03/23 08:04:12;;;;;;;20.40;11.70;;;;;;;3.90;60.20;98340.76;1824726;78;21202;-72
2021/03/23 08:06:56;;;;;;;23.02;10.93;;;;;;;3.85;59.59;98339.83;1824825;78;21519;-72
2021/03/23 08:09:43;;;;;;;20.62;10.75;;;;;;;3.82;60.28;98338.41;1824348;77;21511;-71
2021/03/23 08:12:47;;;;;;;21.12;10.13;;;;;;;3.79;59.71;98346.09;1824683;78;21105;-72
2021/03/23 08:15:52;;;;;;;21.05;10.45;;;;;;;3.78;60.15;98347.14;1824625;77;21026;-72
2021/03/23 08:18:59;;;;;;;22.00;10.45;;;;;;;3.80;60.65;98351.75;1824587;78;22150;-72
2021/03/23 08:21:58;;;;;;;19.02;10.10;;;;;;;3.87;59.68;98345.77;1824519;77;21023;-72
2021/03/23 08:24:57;;;;;;;26.42;10.23;;;;;;;3.87;60.18;98349.27;1824021;77;21499;-71
2021/03/23 08:27:50;;;;;;;22.77;10.30;;;;;;;3.96;59.14;98353.27;1824181;78;21031;-72
2021/03/23 08:31:04;;;;;;;25.32;11.83;;;;;;;3.98;60.22;98344.98;1824422;77;21032;-71
2021/03/23 08:34:10;;;;;;;28.38;11.68;;;;;;;4.14;60.21;98352.38;1824545;78;21459;-71
2021/03/23 08:36:51;;;;;;;21.27;10.23;;;;;;;4.17;60.27;98363.16;1826014;78;21587;-71
2021/03/23 08:39:49;;;;;;;20.20;10.70;;;;;;;4.22;60.54;98364.63;1831764;77;21141;-72
2021/03/23 08:42:18;;;;;;;22.63;10.77;;;;;;;4.27;60.74;98360.72;1832653;78;21054;-72
2021/03/23 08:44:49;;;;;;;14.70;8.78;;;;;;;4.35;60.83;98364.94;1832817;77;21027;-72
2021/03/23 08:47:36;;;;;;;20.25;10.25;;;;;;;4.34;58.99;98359.28;1832392;78;21868;-72
2021/03/23 08:50:17;;;;;;;27.62;13.05;;;;;;;4.37;59.46;98361.52;1832618;77;21046;-72
2021/03/23 08:52:54;;;;;;;22.45;10.15;;;;;;;4.38;59.47;98361.28;1830539;78;21459;-72
2021/03/23 08:55:34;;;;;;;22.77;11.28;;;;;;;4.33;58.75;98361.67;1832700;77;21102;-72
2021/03/23 08:58:10;;;;;;;24.25;12.78;;;;;;;4.36;59.01;98358.52;1832704;78;21085;-72
2021/03/23 09:00:42;;;;;;;24.23;10.70;;;;;;;4.39;59.45;98360.75;1832467;77;21737;-72
2021/03/23 09:03:13;;;;;;;20.82;10.23;;;;;;;4.38;59.42;98359.12;1831442;78;21594;-73
2021/03/23 09:05:59;;;;;;;33.58;18.77;;;;;;;4.38;59.13;98365.83;1832728;77;21097;-72
2021/03/23 09:08:42;;;;;;;17.90;9.70;;;;;;;4.38;59.28;98361.81;1805071;78;21058;-70
2021/03/23 09:11:40;;;;;;;16.32;8.75;;;;;;;4.31;58.73;98362.44;1832816;77;21133;-72
2021/03/23 09:14:14;;;;;;;17.65;9.75;;;;;;;4.29;59.00;98356.48;1832726;76;21286;-72
2021/03/23 09:17:03;;;;;;;19.73;8.55;;;;;;;4.30;59.25;98351.41;1832731;78;21137;-72
2021/03/23 09:19:53;;;;;;;26.30;15.80;;;;;;;4.29;59.33;98350.59;1832699;77;21201;-72
2021/03/23 09:22:33;;;;;;;20.45;11.25;;;;;;;4.27;59.36;98349.17;1832367;78;21117;-71
2021/03/23 09:25:23;;;;;;;20.15;9.13;;;;;;;4.30;59.84;98356.25;1832717;77;21070;-72
2021/03/23 09:27:54;;;;;;;20.25;8.85;;;;;;;4.27;59.83;98356.70;1832674;78;21507;-70
2021/03/23 09:30:50;;;;;;;24.52;11.08;;;;;;;4.23;60.09;98350.98;1832738;76;21455;-71
2021/03/23 09:33:26;;;;;;;23.65;11.03;;;;;;;4.25;60.12;98357.45;1832744;78;21498;-70
2021/03/23 09:36:14;;;;;;;30.97;14.87;;;;;;;4.23;60.29;98359.56;1832543;77;21418;-72
2021/03/23 09:38:44;;;;;;;21.33;11.43;;;;;;;4.16;60.25;98359.66;1827254;78;21093;-71
2021/03/23 09:41:25;;;;;;;19.77;9.63;;;;;;;4.08;60.44;98361.33;1826656;77;21152;-71
2021/03/23 09:44:09;;;;;;;21.27;9.55;;;;;;;4.08;60.95;98356.48;1809161;78;21416;-72
2021/03/23 09:46:45;;;;;;;20.00;10.10;;;;;;;4.10;61.19;98353.05;1826622;78;21062;-71
2021/03/23 09:49:27;;;;;;;22.32;11.40;;;;;;;4.05;61.59;98352.41;1826663;77;21089;-72
2021/03/23 09:52:22;;;;;;;17.48;9.60;;;;;;;4.11;61.51;98356.05;1826569;78;21094;-72
2021/03/23 09:54:58;;;;;;;20.20;9.18;;;;;;;4.17;61.92;98347.06;1826507;77;21273;-71
2021/03/23 09:57:27;;;;;;;26.05;11.03;;;;;;;4.06;63.24;98344.66;1826469;78;21074;-71
2021/03/23 09:59:59;;;;;;;21.40;10.75;;;;;;;4.11;62.67;98346.66;1826658;77;21054;-71
2021/03/23 10:02:32;;;;;;;40.88;26.17;;;;;;;4.13;62.88;98352.60;1826617;78;21034;-71
2021/03/23 10:05:30;;;;;;;34.15;21.62;;;;;;;4.11;63.25;98343.45;1826572;77;21074;-72
2021/03/23 10:08:14;;;;;;;29.60;15.03;;;;;;;4.12;63.15;98347.77;1847646;76;22676;-71
2021/03/23 10:10:40;;;;;;;28.07;14.18;;;;;;;4.06;63.36;98341.97;1797029;78;21098;-72
2021/03/23 10:13:26;;;;;;;33.92;14.33;;;;;;;4.03;63.33;98346.98;1785999;80;21246;-72
2021/03/23 10:15:54;;;;;;;29.30;13.62;;;;;;;3.90;65.23;98354.69;1785843;79;20917;-71
2021/03/23 10:18:29;;;;;;;24.05;11.50;;;;;;;3.83;65.62;98350.76;1785904;80;21095;-71
2021/03/23 10:21:10;;;;;;;24.12;12.35;;;;;;;3.82;65.26;98357.69;1785966;79;20897;-71
2021/03/23 10:23:55;;;;;;;32.38;15.98;;;;;;;3.73;66.87;98350.49;1786071;79;21461;-72
2021/03/23 10:26:22;;;;;;;30.75;13.83;;;;;;;3.55;68.16;98361.26;1785906;79;21240;-71
2021/03/23 10:28:50;;;;;;;36.88;14.78;;;;;;;3.66;68.22;98362.64;1785928;80;21126;-71
2021/03/23 10:31:35;;;;;;;31.93;16.40;;;;;;;3.68;68.59;98358.42;1785822;79;21054;-72
2021/03/23 10:34:22;;;;;;;25.92;13.78;;;;;;;3.72;68.21;98352.88;1785862;80;21116;-71
2021/03/23 10:37:01;;;;;;;39.25;15.95;;;;;;;3.89;67.23;98352.53;1785883;79;21460;-72
2021/03/23 10:39:47;;;;;;;35.55;17.57;;;;;;;4.07;67.78;98346.28;1785981;79;21252;-72
2021/03/23 10:42:25;;;;;;;40.55;17.52;;;;;;;4.10;68.48;98350.36;1785778;79;21027;-71
2021/03/23 10:44:53;;;;;;;30.27;15.55;;;;;;;4.19;68.27;98356.53;1785851;79;21110;-70
2021/03/23 10:47:32;;;;;;;44.50;18.70;;;;;;;4.34;68.27;98356.59;1781062;80;21086;-70
2021/03/23 10:50:22;;;;;;;89.00;36.65;;;;;;;4.40;67.87;98356.49;1785941;79;21091;-72
2021/03/23 10:52:49;;;;;;;46.10;28.07;;;;;;;4.52;67.35;98348.44;1785823;80;21515;-72
2021/03/23 10:55:27;;;;;;;32.83;18.20;;;;;;;4.68;67.07;98350.44;1785768;79;21039;-72
2021/03/23 10:58:23;;;;;;;38.90;17.57;;;;;;;4.65;66.80;98358.97;1785812;80;21110;-71
2021/03/23 11:01:16;;;;;;;38.83;20.32;;;;;;;4.68;67.00;98359.83;1785843;79;21114;-71
2021/03/23 11:03:45;;;;;;;32.45;18.05;;;;;;;4.88;66.10;98360.84;1785862;80;21091;-71
2021/03/23 11:06:32;;;;;;;34.65;16.93;;;;;;;4.73;65.67;98356.46;1785840;79;21257;-71
2021/03/23 11:09:00;;;;;;;39.20;16.82;;;;;;;4.93;65.80;98364.97;1785889;80;21090;-72
2021/03/23 11:11:26;;;;;;;32.30;16.23;;;;;;;4.74;65.38;98368.30;1755519;80;21027;-72
2021/03/23 11:13:52;;;;;;;34.98;16.57;;;;;;;4.87;65.68;98359.70;1785896;80;21145;-72
2021/03/23 11:16:23;;;;;;;28.83;17.17;;;;;;;5.19;65.25;98360.95;1785819;79;21584;-72
2021/03/23 11:18:49;;;;;;;26.75;14.00;;;;;;;5.46;64.55;98359.89;1785429;80;21237;-72
2021/03/23 11:21:17;;;;;;;61.85;24.82;;;;;;;5.49;63.68;98360.78;1785256;79;20905;-72
2021/03/23 11:26:27;;;;;;;33.40;18.70;;;;;;;5.72;64.35;98352.33;1816124;76;22596;-71
2021/03/23 11:28:56;;;;;;;35.10;18.12;;;;;;;5.49;63.88;98353.25;1785844;80;20937;-72
2021/03/23 11:31:24;;;;;;;27.77;15.18;;;;;;;5.55;64.17;98353.09;1786034;79;21200;-71
2021/03/23 11:33:50;;;;;;;30.13;15.17;;;;;;;5.43;64.23;98350.97;1786155;80;20904;-71
2021/03/23 11:36:19;;;;;;;74.00;31.35;;;;;;;5.12;65.20;98352.20;1785846;79;21122;-71
2021/03/23 11:38:45;;;;;;;36.65;16.52;;;;;;;5.13;64.93;98353.86;1786022;80;21110;-72
2021/03/23 11:41:19;;;;;;;37.48;17.30;;;;;;;4.83;65.79;98354.53;1785867;79;21023;-72
2021/03/23 11:43:50;;;;;;;32.15;17.48;;;;;;;4.77;65.57;98348.22;1785981;80;21238;-71
2021/03/23 11:46:26;;;;;;;30.95;17.48;;;;;;;4.74;65.45;98343.33;1785791;79;21098;-72
2021/03/23 11:48:56;;;;;;;59.95;28.50;;;;;;;4.65;65.58;98350.09;1785889;80;20952;-72
2021/03/23 11:51:24;;;;;;;64.75;28.62;;;;;;;4.58;65.95;98348.05;1785816;79;21015;-72
2021/03/23 11:53:51;;;;;;;63.17;26.80;;;;;;;4.52;65.83;98349.26;1785945;80;21067;-72
2021/03/23 11:56:17;;;;;;;58.55;28.80;;;;;;;4.42;66.11;98352.23;1785808;79;21263;-72